Time;durP1;ratioP1;P1;durP2;ratioP2;P2;SDS_P1;SDS_P2;PMS_P1;PMS_P2;Temp;Humidity;BMP_temperature;BMP_pressure;BME280_temperature;BME280_humidity;BME280_pressure;Samples;Min_cycle;Max_cycle;Signal;HPM_P1;HPM_P2
2022/05/04 00:00:01;;;;;;;10.30;4.50;;;;;;;14.91;43.94;101827.47;5136582;27;20062;-63
2022/05/04 00:02:38;;;;;;;10.57;3.97;;;;;;;14.89;43.75;101819.47;5135709;27;20050;-64
2022/05/04 00:05:06;;;;;;;11.40;4.07;;;;;;;14.88;44.03;101825.00;5136240;27;20047;-63
2022/05/04 00:07:32;;;;;;;15.50;4.85;;;;;;;14.85;43.76;101815.25;5136313;27;20084;-62
2022/05/04 00:09:59;;;;;;;8.93;4.38;;;;;;;14.84;44.01;101820.75;5136069;27;20427;-64
2022/05/04 00:12:26;;;;;;;9.68;4.22;;;;;;;14.81;44.05;101823.69;5136113;27;20035;-63
2022/05/04 00:14:54;;;;;;;8.18;4.20;;;;;;;14.79;43.96;101828.34;5134445;27;20043;-63
2022/05/04 00:17:20;;;;;;;8.43;4.43;;;;;;;14.77;43.96;101824.91;5135271;27;20042;-63
2022/05/04 00:19:47;;;;;;;8.98;4.63;;;;;;;14.77;44.05;101824.91;5136282;27;20043;-63
2022/05/04 00:22:19;;;;;;;8.60;4.22;;;;;;;14.74;44.01;101830.53;5136139;27;20480;-62
2022/05/04 00:24:46;;;;;;;9.85;4.13;;;;;;;14.73;44.18;101832.38;5136277;27;20066;-62
2022/05/04 00:27:15;;;;;;;6.28;4.10;;;;;;;14.73;44.19;101826.09;5134171;27;20047;-63
2022/05/04 00:29:43;;;;;;;10.15;4.32;;;;;;;14.72;44.30;101825.22;5135813;27;20051;-63
2022/05/04 00:32:11;;;;;;;6.97;4.22;;;;;;;14.73;44.15;101829.66;5135410;27;20439;-62
2022/05/04 00:34:38;;;;;;;11.02;4.60;;;;;;;14.73;44.40;101826.09;5135472;27;20370;-63
2022/05/04 00:37:06;;;;;;;8.95;4.40;;;;;;;14.71;44.22;101831.63;5132936;27;20460;-63
2022/05/04 00:39:33;;;;;;;11.52;4.28;;;;;;;14.69;44.23;101830.00;5134779;27;20047;-63
2022/05/04 00:42:16;;;;;;;6.97;4.28;;;;;;;14.68;44.38;101823.72;5135796;27;20058;-62
2022/05/04 00:44:44;;;;;;;8.52;4.18;;;;;;;14.69;44.41;101827.28;5135463;27;20095;-63
2022/05/04 00:47:11;;;;;;;9.32;4.85;;;;;;;14.69;44.54;101822.75;5134119;27;20043;-62
2022/05/04 00:49:40;;;;;;;8.27;4.60;;;;;;;14.68;44.39;101829.13;5133537;27;20046;-64
2022/05/04 00:52:08;;;;;;;7.78;4.43;;;;;;;14.68;44.21;101830.97;5135453;27;20051;-63
2022/05/04 00:54:35;;;;;;;7.32;4.45;;;;;;;14.68;44.41;101825.56;5116819;27;20519;-63
2022/05/04 00:57:04;;;;;;;9.25;4.68;;;;;;;14.70;44.45;101821.78;5134515;27;20043;-63
2022/05/04 00:59:32;;;;;;;7.78;4.43;;;;;;;14.70;44.57;101819.06;5134509;27;20057;-62
2022/05/04 01:01:59;;;;;;;7.65;3.97;;;;;;;14.71;44.59;101819.94;5135310;27;20039;-62
2022/05/04 01:04:26;;;;;;;8.68;4.93;;;;;;;14.70;44.55;101816.38;5134968;27;20545;-61
2022/05/04 01:06:52;;;;;;;11.63;4.72;;;;;;;14.69;44.72;101814.63;5135016;27;20038;-63
2022/05/04 01:09:18;;;;;;;9.10;4.65;;;;;;;14.68;44.74;101814.75;5137022;27;20118;-61
2022/05/04 01:11:46;;;;;;;11.88;4.82;;;;;;;14.67;44.75;101818.44;5139990;27;20144;-62
2022/05/04 01:14:14;;;;;;;8.70;4.82;;;;;;;14.66;44.79;101817.56;5118168;27;20047;-62
2022/05/04 01:16:46;;;;;;;13.18;4.82;;;;;;;14.63;44.88;101824.06;5134413;27;20408;-63
2022/05/04 01:19:13;;;;;;;11.05;4.43;;;;;;;14.63;44.83;101815.09;5130849;27;20047;-63
2022/05/04 01:21:40;;;;;;;11.18;4.72;;;;;;;14.62;44.96;101811.53;5133966;27;20126;-63
2022/05/04 01:24:07;;;;;;;10.00;4.43;;;;;;;14.65;45.05;101817.69;5133047;27;20039;-63
2022/05/04 01:26:34;;;;;;;10.00;4.07;;;;;;;14.65;44.87;101810.44;5135077;27;20500;-63
2022/05/04 01:29:02;;;;;;;10.73;4.78;;;;;;;14.68;44.83;101812.03;5134690;27;20073;-63
2022/05/04 01:31:29;;;;;;;10.60;4.65;;;;;;;14.68;44.97;101818.31;5134645;27;20481;-63
2022/05/04 01:33:55;;;;;;;10.88;4.60;;;;;;;14.68;44.99;101812.03;5134450;27;20092;-63
2022/05/04 01:36:22;;;;;;;9.55;4.80;;;;;;;14.68;44.96;101814.75;5133088;27;20058;-62
2022/05/04 01:38:49;;;;;;;11.40;4.70;;;;;;;14.68;44.93;101815.63;5133525;27;20039;-63
2022/05/04 01:44:00;;;;;;;8.52;4.40;;;;;;;14.68;45.03;101803.94;5134517;27;20050;-62
2022/05/04 01:46:27;;;;;;;8.07;4.35;;;;;;;14.68;45.08;101815.63;5133440;27;20480;-62
2022/05/04 01:48:53;;;;;;;10.52;4.70;;;;;;;14.67;44.96;101816.59;5134584;27;20047;-62
2022/05/04 01:51:20;;;;;;;9.30;4.70;;;;;;;14.65;44.88;101810.44;5134369;27;20404;-63
2022/05/04 01:53:46;;;;;;;11.07;4.70;;;;;;;14.64;45.19;101816.81;5133339;27;20043;-63
2022/05/04 01:56:13;;;;;;;12.55;5.47;;;;;;;14.66;44.99;101816.69;5132488;27;20400;-63
2022/05/04 01:58:39;;;;;;;9.25;4.78;;;;;;;14.67;44.98;101821.13;5130778;28;20046;-62
2022/05/04 02:01:06;;;;;;;10.23;4.68;;;;;;;14.66;44.98;101814.88;5113935;28;20059;-62
2022/05/04 02:03:33;;;;;;;10.70;4.45;;;;;;;14.67;45.23;101815.72;5113777;28;20040;-63
2022/05/04 02:06:00;;;;;;;8.90;4.53;;;;;;;14.67;45.15;101808.47;5115547;28;20043;-62
2022/05/04 02:08:26;;;;;;;14.18;4.97;;;;;;;14.69;45.02;101805.66;5118016;28;20488;-63
2022/05/04 02:10:53;;;;;;;9.73;5.30;;;;;;;14.70;44.95;101810.09;5134344;27;20043;-62
2022/05/04 02:13:19;;;;;;;8.07;4.68;;;;;;;14.70;45.11;101805.56;5138597;27;20039;-62
2022/05/04 02:15:52;;;;;;;12.55;5.28;;;;;;;14.70;45.00;101810.09;5137033;27;20130;-62
2022/05/04 02:18:18;;;;;;;10.35;5.18;;;;;;;14.67;44.97;101808.47;5138592;27;20046;-63
2022/05/04 02:20:45;;;;;;;10.35;4.57;;;;;;;14.69;45.20;101811.06;5137567;27;20051;-63
2022/05/04 02:23:11;;;;;;;11.10;5.03;;;;;;;14.70;45.14;101810.09;5137049;27;20036;-63
2022/05/04 02:25:38;;;;;;;10.30;4.93;;;;;;;14.70;45.05;101810.97;5137926;27;20047;-63
2022/05/04 02:28:04;;;;;;;10.48;4.93;;;;;;;14.70;45.19;101810.97;5119884;27;20039;-63
2022/05/04 02:30:31;;;;;;;10.77;5.00;;;;;;;14.71;45.06;101809.13;5119787;27;20074;-63
2022/05/04 02:32:57;;;;;;;9.43;4.90;;;;;;;14.69;45.00;101806.53;5138244;27;20042;-63
2022/05/04 02:38:09;;;;;;;11.43;5.20;;;;;;;14.66;45.21;101800.47;5138277;27;20039;-63
2022/05/04 02:40:36;;;;;;;10.50;4.97;;;;;;;14.65;45.05;101802.31;5137925;27;20371;-63
2022/05/04 02:43:04;;;;;;;7.95;4.65;;;;;;;14.64;45.16;101803.28;5137767;27;20039;-62
2022/05/04 02:45:30;;;;;;;10.88;5.07;;;;;;;14.63;45.02;101799.72;5136959;27;20122;-62
2022/05/04 02:47:57;;;;;;;11.65;4.95;;;;;;;14.64;45.24;101797.88;5137676;27;20481;-63
2022/05/04 02:50:24;;;;;;;11.77;5.32;;;;;;;14.61;45.24;101793.56;5119681;27;20051;-63
2022/05/04 02:52:51;;;;;;;11.10;4.95;;;;;;;14.62;45.25;101803.41;5137055;27;20047;-63
2022/05/04 02:55:18;;;;;;;10.23;4.95;;;;;;;14.61;45.27;101800.81;5131071;27;20040;-62
2022/05/04 02:57:44;;;;;;;9.60;5.10;;;;;;;14.60;45.00;101796.38;5125232;27;20050;-62
2022/05/04 03:00:11;;;;;;;11.00;5.45;;;;;;;14.61;45.28;101793.56;5137514;27;20051;-63
2022/05/04 03:02:38;;;;;;;10.95;5.28;;;;;;;14.62;45.20;101789.03;5137744;27;20077;-63
2022/05/04 03:05:06;;;;;;;9.68;4.82;;;;;;;14.63;45.25;101794.31;5137164;27;20092;-63
2022/05/04 03:07:34;;;;;;;7.22;4.85;;;;;;;14.62;45.33;101795.31;5136257;27;20489;-63
2022/05/04 03:10:00;;;;;;;8.82;5.00;;;;;;;14.63;45.12;101794.31;5135721;27;20035;-63
2022/05/04 03:12:27;;;;;;;13.38;5.43;;;;;;;14.62;45.39;101789.03;5137522;27;20035;-63
2022/05/04 03:14:54;;;;;;;10.55;4.70;;;;;;;14.59;45.30;101784.72;5135429;27;20400;-63
2022/05/04 03:17:21;;;;;;;10.65;5.30;;;;;;;14.56;45.44;101790.34;5137243;27;20221;-63
2022/05/04 03:19:47;;;;;;;11.77;5.10;;;;;;;14.53;45.15;101782.44;5137437;27;20039;-63
2022/05/04 03:22:15;;;;;;;13.23;5.95;;;;;;;14.52;45.48;101778.03;5136652;27;20062;-63
2022/05/04 03:24:42;;;;;;;14.00;4.95;;;;;;;14.52;45.26;101783.44;5137059;27;20043;-63
2022/05/04 03:27:08;;;;;;;10.27;5.13;;;;;;;14.52;45.52;101777.16;5137280;27;20512;-63
2022/05/04 03:29:35;;;;;;;13.27;4.82;;;;;;;14.50;45.29;101782.69;5136370;27;20126;-63
2022/05/04 03:32:03;;;;;;;12.50;5.20;;;;;;;14.48;45.43;101776.53;5136869;27;20046;-63
2022/05/04 03:34:30;;;;;;;11.02;4.60;;;;;;;14.46;45.44;101774.91;5136093;27;20095;-63
2022/05/04 03:37:00;;;;;;;13.38;5.22;;;;;;;14.45;45.18;101773.19;5136618;27;20381;-64
2022/05/04 03:39:27;;;;;;;11.77;5.20;;;;;;;14.45;45.45;101776.75;5136995;27;20404;-64
2022/05/04 03:41:54;;;;;;;11.15;4.78;;;;;;;14.42;45.33;101773.38;5136952;27;20043;-63
2022/05/04 03:44:21;;;;;;;13.05;5.35;;;;;;;14.39;45.42;101774.44;5135936;27;20050;-63
2022/05/04 03:46:52;;;;;;;11.73;5.07;;;;;;;14.35;45.47;101774.78;5136758;27;20047;-63
2022/05/04 03:49:22;;;;;;;14.00;5.03;;;;;;;14.32;45.58;101781.28;5136595;27;20560;-63
2022/05/04 03:51:49;;;;;;;9.32;4.45;;;;;;;14.31;45.59;101782.25;5136708;27;20043;-63
2022/05/04 03:54:15;;;;;;;13.43;4.95;;;;;;;14.31;45.58;101782.25;5134556;27;20102;-62
2022/05/04 03:56:42;;;;;;;12.48;4.38;;;;;;;14.31;45.46;101783.13;5136456;27;20043;-63
2022/05/04 03:59:09;;;;;;;14.40;5.63;;;;;;;14.32;45.72;101786.69;5136474;27;20558;-62
2022/05/04 04:01:36;;;;;;;12.30;5.30;;;;;;;14.32;45.59;101783.97;5136292;27;20393;-62
2022/05/04 04:04:04;;;;;;;10.57;4.82;;;;;;;14.29;45.61;101779.66;5134998;27;20118;-63
2022/05/04 04:06:32;;;;;;;11.65;5.03;;;;;;;14.25;45.49;101775.44;5136396;27;20396;-62
2022/05/04 04:08:59;;;;;;;11.20;4.88;;;;;;;14.23;45.57;101784.63;5136263;27;20039;-63
2022/05/04 04:11:26;;;;;;;9.70;5.05;;;;;;;14.21;45.55;101781.19;5136496;27;20134;-63
2022/05/04 04:13:53;;;;;;;14.50;5.18;;;;;;;14.19;45.44;101781.28;5135362;27;20051;-63
2022/05/04 04:16:19;;;;;;;8.40;4.60;;;;;;;14.16;45.47;101784.22;5135838;27;20050;-63
2022/05/04 04:18:46;;;;;;;14.40;5.25;;;;;;;14.16;45.67;101788.75;5136460;27;20047;-63
2022/05/04 04:23:57;;;;;;;12.40;5.43;;;;;;;14.17;45.53;101790.47;5135819;27;20397;-62
2022/05/04 04:26:24;;;;;;;13.43;5.13;;;;;;;14.15;45.83;101787.88;5133890;27;22341;-64
2022/05/04 04:28:51;;;;;;;10.27;4.85;;;;;;;14.14;45.67;101788.00;5135216;27;20039;-64
2022/05/04 04:31:18;;;;;;;12.02;4.95;;;;;;;14.12;45.82;101788.09;5135712;27;20401;-64
2022/05/04 04:33:44;;;;;;;12.95;5.70;;;;;;;14.11;45.78;101789.03;5134171;27;20084;-63
2022/05/04 04:36:11;;;;;;;8.07;4.47;;;;;;;14.10;45.79;101792.72;5135606;27;20047;-63
2022/05/04 04:38:38;;;;;;;12.73;4.88;;;;;;;14.10;45.93;101783.75;5134392;27;20053;-63
2022/05/04 04:41:04;;;;;;;12.15;4.85;;;;;;;14.09;45.95;101791.00;5135882;27;20036;-63
2022/05/04 04:43:31;;;;;;;11.95;4.93;;;;;;;14.10;45.76;101794.56;5135459;27;20130;-63
2022/05/04 04:45:57;;;;;;;6.80;4.45;;;;;;;14.11;45.99;101790.88;5135585;27;20373;-63
2022/05/04 04:48:24;;;;;;;10.63;4.43;;;;;;;14.12;45.91;101792.59;5135547;27;20050;-62
2022/05/04 04:50:50;;;;;;;11.07;4.78;;;;;;;14.11;45.92;101793.59;5134599;27;20389;-62
2022/05/04 04:53:22;;;;;;;9.52;4.97;;;;;;;14.09;45.96;101790.13;5135201;27;20561;-63
2022/05/04 04:55:50;;;;;;;15.30;5.53;;;;;;;14.11;45.87;101801.69;5135811;27;20126;-63
2022/05/04 04:58:16;;;;;;;15.27;5.40;;;;;;;14.12;45.88;101804.31;5135140;27;20043;-63
2022/05/04 05:00:43;;;;;;;13.13;5.93;;;;;;;14.13;45.90;101805.19;5117069;27;20438;-63
2022/05/04 05:03:09;;;;;;;10.85;5.13;;;;;;;14.14;45.87;101801.50;5133215;27;20036;-63
2022/05/04 05:05:40;;;;;;;12.30;5.45;;;;;;;14.14;45.76;101801.50;5134994;27;20500;-62
2022/05/04 05:08:08;;;;;;;12.60;5.30;;;;;;;14.14;45.94;101799.66;5135141;27;20038;-64
2022/05/04 05:10:35;;;;;;;17.30;5.38;;;;;;;14.15;45.97;101805.94;5134506;27;20484;-62
2022/05/04 05:13:02;;;;;;;10.77;5.45;;;;;;;14.15;45.76;101798.69;5135170;27;20053;-63
2022/05/04 05:18:14;;;;;;;10.63;4.78;;;;;;;14.13;45.90;101803.34;5134896;27;20050;-63
2022/05/04 05:20:40;;;;;;;13.60;5.53;;;;;;;14.13;45.93;101795.25;5135035;27;20404;-63
2022/05/04 05:23:07;;;;;;;14.00;4.70;;;;;;;14.13;45.72;101797.06;5134275;27;20035;-63
2022/05/04 05:25:33;;;;;;;11.20;4.82;;;;;;;14.13;45.76;101799.78;5134659;27;20043;-63
2022/05/04 05:28:00;;;;;;;11.63;4.85;;;;;;;14.13;45.85;101797.94;5134592;27;20042;-62
2022/05/04 05:30:26;;;;;;;15.38;5.47;;;;;;;14.14;45.84;101804.19;5133843;27;20489;-63
2022/05/04 05:32:53;;;;;;;11.55;4.53;;;;;;;14.15;45.61;101797.81;5134536;27;20146;-64
2022/05/04 05:35:20;;;;;;;12.93;5.32;;;;;;;14.13;45.54;101800.63;5134754;27;20039;-63
2022/05/04 05:37:47;;;;;;;14.15;4.70;;;;;;;14.12;45.74;101798.91;5134626;27;20473;-64
2022/05/04 05:40:17;;;;;;;8.80;4.60;;;;;;;14.08;45.61;101805.47;5117312;27;20043;-62
2022/05/04 05:42:44;;;;;;;15.93;5.10;;;;;;;14.04;45.60;101806.66;5129141;27;20043;-63
2022/05/04 05:45:11;;;;;;;11.73;5.43;;;;;;;14.04;45.69;101806.66;5134198;27;20039;-63
2022/05/04 05:47:39;;;;;;;12.35;5.80;;;;;;;14.03;45.68;101802.22;5134464;27;20038;-63
2022/05/04 05:50:11;;;;;;;11.75;4.82;;;;;;;14.04;45.79;101806.66;5134258;27;20392;-62
2022/05/04 05:52:37;;;;;;;11.65;5.07;;;;;;;14.06;45.72;101809.25;5113822;28;20122;-62
2022/05/04 05:55:04;;;;;;;11.02;5.05;;;;;;;14.11;45.81;101812.50;5113765;28;20126;-62
2022/05/04 05:57:32;;;;;;;8.75;4.72;;;;;;;14.11;45.75;101807.94;5095914;28;20047;-62
2022/05/04 06:00:01;;;;;;;9.80;5.53;;;;;;;14.12;45.81;101807.00;5117032;28;20039;-62
2022/05/04 06:02:39;;;;;;;14.10;5.45;;;;;;;14.15;45.73;101808.63;5129003;28;20086;-62
2022/05/04 06:05:06;;;;;;;13.75;6.03;;;;;;;14.20;45.64;101806.47;5124259;28;20035;-62
2022/05/04 06:07:33;;;;;;;14.98;5.80;;;;;;;14.25;45.82;101815.13;5127577;28;20042;-62
2022/05/04 06:09:59;;;;;;;16.25;5.00;;;;;;;14.27;45.67;101807.75;5126248;28;20050;-62
2022/05/04 06:12:26;;;;;;;10.77;5.50;;;;;;;14.28;45.47;101814.91;5129278;28;20408;-62
2022/05/04 06:14:52;;;;;;;14.25;5.60;;;;;;;14.29;45.41;101817.50;5132576;28;20051;-62
2022/05/04 06:17:19;;;;;;;11.00;5.28;;;;;;;14.33;45.51;101815.44;5128392;28;20035;-62
2022/05/04 06:19:47;;;;;;;13.70;5.05;;;;;;;14.38;45.56;101813.25;5125453;28;20051;-62
2022/05/04 06:22:14;;;;;;;10.02;4.78;;;;;;;14.43;45.37;101818.38;5131396;28;20047;-61
2022/05/04 06:24:41;;;;;;;14.35;5.78;;;;;;;14.46;45.35;101818.16;5125271;28;20043;-62
2022/05/04 06:27:07;;;;;;;10.95;5.25;;;;;;;14.49;45.36;101816.09;5128819;28;20035;-63
2022/05/04 06:35:08;;;;;;;10.98;5.18;;;;;;;14.72;45.27;101829.78;5126330;28;20036;-61
2022/05/04 06:37:34;;;;;;;12.65;5.43;;;;;;;14.76;45.15;101831.28;5132224;28;20035;-61
2022/05/04 06:40:01;;;;;;;10.77;4.80;;;;;;;14.81;45.19;101824.56;5133682;28;20046;-61
2022/05/04 06:42:27;;;;;;;9.55;5.05;;;;;;;14.87;44.84;101831.38;5134317;28;20062;-62
2022/05/04 06:45:01;;;;;;;13.93;5.07;;;;;;;14.93;44.82;101823.69;5134038;27;20039;-62
2022/05/04 06:47:27;;;;;;;8.95;4.65;;;;;;;15.00;44.85;101825.94;5134125;28;20046;-62
2022/05/04 06:49:54;;;;;;;12.60;5.75;;;;;;;15.06;44.87;101823.63;5133283;28;20046;-61
2022/05/04 06:52:24;;;;;;;15.45;4.93;;;;;;;15.11;44.57;101817.88;5118074;27;20095;-62
2022/05/04 06:54:50;;;;;;;15.63;5.80;;;;;;;15.17;44.58;101826.41;5137876;27;20062;-61
2022/05/04 06:57:17;;;;;;;12.73;5.40;;;;;;;15.26;44.51;101823.00;5137371;27;20043;-62
2022/05/04 06:59:43;;;;;;;13.82;5.50;;;;;;;15.38;44.47;101823.06;5121365;27;20035;-62
2022/05/04 07:02:10;;;;;;;12.15;4.72;;;;;;;15.51;44.37;101823.84;5117020;28;20035;-62
2022/05/04 07:04:36;;;;;;;12.90;5.25;;;;;;;15.64;44.30;101815.72;5117011;28;20058;-61
2022/05/04 07:07:04;;;;;;;10.77;5.03;;;;;;;15.80;44.16;101827.97;5117101;28;20051;-62
2022/05/04 07:09:30;;;;;;;11.52;4.55;;;;;;;16.03;43.81;101825.31;5102287;27;20035;-62
2022/05/04 07:11:57;;;;;;;8.77;4.25;;;;;;;16.22;43.54;101831.00;5137613;27;20043;-62
2022/05/04 07:14:23;;;;;;;10.20;4.47;;;;;;;16.34;43.39;101835.44;5137292;27;20039;-62
2022/05/04 07:16:50;;;;;;;11.88;4.30;;;;;;;16.42;43.07;101824.00;5137325;27;20047;-62
2022/05/04 07:19:17;;;;;;;14.82;4.47;;;;;;;16.55;43.15;101826.59;5137275;27;20051;-62
2022/05/04 07:21:43;;;;;;;14.20;5.03;;;;;;;16.73;42.71;101822.44;5137203;27;20393;-62
2022/05/04 07:24:11;;;;;;;11.80;4.95;;;;;;;16.91;42.60;101815.50;5136849;27;20039;-61
2022/05/04 07:26:39;;;;;;;8.45;4.40;;;;;;;17.08;42.44;101819.53;5136987;27;20039;-61
2022/05/04 07:29:06;;;;;;;14.07;5.82;;;;;;;17.21;42.00;101817.53;5136995;27;20066;-62
2022/05/04 07:31:39;;;;;;;16.60;5.13;;;;;;;17.38;41.99;101819.69;5136807;27;20027;-63
2022/05/04 07:34:06;;;;;;;14.45;4.68;;;;;;;17.49;41.96;101816.06;5136714;27;20039;-62
2022/05/04 07:36:32;;;;;;;11.10;5.32;;;;;;;17.60;41.57;101823.31;5136870;27;20050;-62
2022/05/04 07:38:59;;;;;;;13.88;4.90;;;;;;;17.72;41.49;101819.56;5137481;27;20465;-61
2022/05/04 07:44:10;;;;;;;9.75;4.55;;;;;;;18.02;41.37;101816.09;5136753;27;20047;-60
2022/05/04 07:46:37;;;;;;;8.15;4.15;;;;;;;18.11;40.93;101823.44;5136856;27;20038;-61
2022/05/04 07:49:05;;;;;;;10.25;4.60;;;;;;;18.30;40.84;101826.28;5136285;27;20036;-61
2022/05/04 07:51:31;;;;;;;9.15;4.55;;;;;;;18.48;40.70;101823.78;5136552;27;20477;-60
2022/05/04 07:53:58;;;;;;;12.15;4.78;;;;;;;18.63;40.60;101816.16;5136534;27;20049;-62
2022/05/04 07:56:24;;;;;;;10.70;4.45;;;;;;;18.77;40.09;101823.94;5136713;27;20035;-61
2022/05/04 07:58:51;;;;;;;9.88;4.60;;;;;;;18.91;39.76;101812.66;5137025;27;20058;-61
2022/05/04 08:04:18;;;;;;;12.30;4.75;;;;;;;19.13;39.50;101818.88;5135305;27;20051;-61
2022/05/04 08:06:45;;;;;;;10.98;4.85;;;;;;;19.16;39.21;101824.91;5136412;27;20062;-61
2022/05/04 08:09:12;;;;;;;13.30;5.32;;;;;;;19.27;38.95;101816.59;5136609;27;20130;-62
2022/05/04 08:11:39;;;;;;;14.30;4.68;;;;;;;19.40;39.07;101821.81;5136167;27;20147;-62
2022/05/04 08:14:06;;;;;;;10.20;4.18;;;;;;;19.48;38.65;101819.22;5130477;27;20043;-60
2022/05/04 08:16:32;;;;;;;11.45;5.13;;;;;;;19.51;38.42;101818.94;5118018;27;20540;-61
2022/05/04 08:19:00;;;;;;;11.02;5.90;;;;;;;19.54;38.11;101817.81;5136345;27;20047;-62
2022/05/04 08:21:27;;;;;;;13.35;4.53;;;;;;;19.59;38.18;101818.25;5096991;28;20143;-61
2022/05/04 08:23:53;;;;;;;10.85;5.93;;;;;;;19.62;38.30;101817.97;5131856;27;20080;-61
2022/05/04 08:26:33;;;;;;;7.65;4.72;;;;;;;19.62;37.75;101820.69;5135788;27;20039;-61
2022/05/04 08:28:59;;;;;;;10.25;5.40;;;;;;;19.66;37.71;101822.97;5135904;27;20409;-61
2022/05/04 08:31:27;;;;;;;12.02;5.82;;;;;;;19.71;37.41;101816.22;5136015;27;20035;-60
2022/05/04 08:33:54;;;;;;;9.70;5.43;;;;;;;19.78;37.57;101817.38;5135673;27;20050;-61
2022/05/04 08:36:20;;;;;;;10.80;5.60;;;;;;;19.85;37.41;101808.47;5135752;27;20405;-61
2022/05/04 08:38:47;;;;;;;9.57;5.30;;;;;;;19.95;37.10;101811.19;5135842;27;20039;-62
2022/05/04 08:41:13;;;;;;;10.65;5.53;;;;;;;20.03;37.07;101815.91;5135528;27;20039;-62
2022/05/04 08:43:43;;;;;;;12.07;6.00;;;;;;;19.99;36.80;101809.88;5135446;27;20043;-61
2022/05/04 08:46:15;;;;;;;9.20;4.97;;;;;;;20.06;36.60;101807.41;5134639;27;20484;-61
2022/05/04 08:48:43;;;;;;;10.05;5.07;;;;;;;20.13;37.00;101805.84;5135906;27;20099;-62
2022/05/04 08:51:10;;;;;;;12.82;4.78;;;;;;;20.22;36.86;101807.69;5135460;27;20035;-61
2022/05/04 08:53:38;;;;;;;12.65;5.93;;;;;;;20.38;36.71;101810.66;5135695;27;20035;-61
2022/05/04 08:56:05;;;;;;;14.82;6.07;;;;;;;20.44;36.48;101810.09;5135321;27;20043;-62
2022/05/04 08:58:39;;;;;;;11.13;5.88;;;;;;;20.46;35.86;101813.53;5135222;27;20549;-62
2022/05/04 09:01:06;;;;;;;12.02;6.10;;;;;;;20.50;36.13;101812.22;5135563;27;20404;-61
2022/05/04 09:03:33;;;;;;;14.30;6.38;;;;;;;20.56;36.06;101808.03;5135031;27;20047;-61
2022/05/04 09:06:00;;;;;;;10.10;5.47;;;;;;;20.61;35.73;101802.97;5135304;27;20035;-62
2022/05/04 09:08:58;;;;;;;9.85;6.22;;;;;;;20.65;35.42;101800.81;5135411;27;20035;-61
2022/05/04 09:11:25;;;;;;;11.57;5.82;;;;;;;20.69;35.51;101799.50;5135561;27;20392;-62
2022/05/04 09:13:53;;;;;;;10.50;6.25;;;;;;;20.81;35.51;101801.03;5134761;27;20110;-62
2022/05/04 09:16:32;;;;;;;12.38;6.40;;;;;;;20.85;35.64;101799.72;5135221;27;20043;-62
2022/05/04 09:19:08;;;;;;;11.50;6.35;;;;;;;20.95;35.39;101800.50;5134021;27;20035;-62
2022/05/04 09:21:35;;;;;;;10.98;6.45;;;;;;;21.10;35.50;101804.44;5135313;27;20232;-62
2022/05/04 09:24:02;;;;;;;9.73;6.55;;;;;;;21.25;35.28;101793.88;5134675;27;20501;-62
2022/05/04 09:26:29;;;;;;;10.32;5.55;;;;;;;21.37;35.22;101799.97;5135186;27;20397;-62
2022/05/04 09:29:04;;;;;;;8.57;6.43;;;;;;;21.46;34.78;101794.41;5135058;27;20046;-62
2022/05/04 09:31:31;;;;;;;9.45;5.97;;;;;;;21.50;34.79;101793.09;5135055;27;20047;-61
2022/05/04 09:34:06;;;;;;;13.52;6.25;;;;;;;21.43;33.85;101791.13;5134464;27;20039;-62
2022/05/04 09:36:34;;;;;;;10.73;5.97;;;;;;;21.37;34.18;101791.75;5134938;27;20043;-62
2022/05/04 09:45:14;;;;;;;11.77;6.20;;;;;;;21.52;33.61;101796.50;5031329;28;20060;-61
2022/05/04 09:47:45;;;;;;;13.20;6.32;;;;;;;21.46;33.17;101790.81;5109552;28;20078;-62
2022/05/04 09:50:16;;;;;;;9.73;6.35;;;;;;;21.41;33.19;101787.69;5114472;28;20051;-61
2022/05/04 09:52:50;;;;;;;16.25;6.50;;;;;;;21.44;33.60;101780.03;5129516;27;20053;-61
2022/05/04 09:55:22;;;;;;;13.88;6.95;;;;;;;21.51;33.21;101786.59;5134541;27;20392;-61
2022/05/04 09:57:51;;;;;;;12.80;7.05;;;;;;;21.64;33.52;101790.84;5134550;27;20051;-61
2022/05/04 10:00:20;;;;;;;15.43;6.90;;;;;;;21.80;33.10;101783.63;5134330;27;20035;-61
2022/05/04 10:02:48;;;;;;;11.30;6.90;;;;;;;21.89;33.17;101784.53;5133964;27;20039;-61
2022/05/04 10:05:16;;;;;;;10.55;6.50;;;;;;;21.86;32.71;101780.25;5134322;28;20043;-60
2022/05/04 10:07:44;;;;;;;9.57;5.93;;;;;;;21.91;33.13;101781.63;5134620;28;20043;-61
2022/05/04 10:10:15;;;;;;;10.55;6.20;;;;;;;21.96;32.49;101780.13;5141533;28;20485;-60
2022/05/04 10:12:43;;;;;;;12.73;7.10;;;;;;;21.94;32.73;101781.31;5134529;28;20074;-60
2022/05/04 10:15:12;;;;;;;10.25;5.88;;;;;;;21.94;32.67;101773.13;5133919;28;20392;-60
2022/05/04 10:17:47;;;;;;;10.52;7.00;;;;;;;21.91;32.46;101777.03;5134531;28;20054;-60
2022/05/04 10:20:18;;;;;;;10.95;6.60;;;;;;;21.88;32.39;101774.63;5132941;28;20494;-61
2022/05/04 10:22:53;;;;;;;12.70;6.13;;;;;;;21.90;32.44;101775.31;5133150;27;20064;-60
2022/05/04 10:25:22;;;;;;;10.65;6.45;;;;;;;21.99;32.37;101771.63;5133719;27;20504;-61
2022/05/04 10:27:49;;;;;;;10.30;6.60;;;;;;;22.09;32.26;101768.81;5136279;27;20458;-61
2022/05/04 10:30:31;;;;;;;9.70;6.25;;;;;;;22.24;32.61;101774.53;5117723;28;20039;-61
2022/05/04 10:33:06;;;;;;;15.15;6.93;;;;;;;22.38;32.01;101765.75;5135525;27;20039;-60
2022/05/04 10:35:40;;;;;;;11.32;6.55;;;;;;;22.48;32.07;101761.00;5137958;27;20043;-61
2022/05/04 10:38:27;;;;;;;15.90;6.35;;;;;;;22.49;32.09;101759.97;5137699;27;20054;-61
2022/05/04 10:41:00;;;;;;;13.23;6.18;;;;;;;22.53;31.99;101755.88;5138312;27;20050;-61
2022/05/04 10:43:37;;;;;;;12.55;7.32;;;;;;;22.66;31.68;101756.28;5137865;27;20110;-61
2022/05/04 10:46:06;;;;;;;14.20;7.25;;;;;;;22.80;31.81;101757.56;5137948;27;20165;-61
2022/05/04 10:48:32;;;;;;;9.68;6.53;;;;;;;22.90;31.62;101755.53;5137811;27;20093;-61
2022/05/04 10:51:03;;;;;;;11.48;6.22;;;;;;;23.00;31.42;101749.91;5138042;27;20069;-60
2022/05/04 10:53:33;;;;;;;14.40;6.75;;;;;;;23.16;31.41;101757.31;5137822;27;20070;-61
2022/05/04 10:56:00;;;;;;;10.85;6.75;;;;;;;23.31;31.47;101759.22;5137715;27;20043;-61
2022/05/04 10:58:33;;;;;;;14.43;6.57;;;;;;;23.48;31.25;101759.22;5137650;27;20047;-60
2022/05/04 11:01:08;;;;;;;11.57;7.38;;;;;;;23.56;31.05;101762.84;5137661;27;20526;-61
2022/05/04 11:03:37;;;;;;;13.25;7.68;;;;;;;23.63;31.00;101747.44;5137477;27;20053;-61
2022/05/04 11:06:10;;;;;;;12.27;7.30;;;;;;;23.67;30.51;101756.16;5137493;27;20412;-61
2022/05/04 11:08:45;;;;;;;10.73;6.90;;;;;;;23.68;30.63;101753.25;5137986;27;20039;-62
2022/05/04 11:11:12;;;;;;;15.63;7.65;;;;;;;23.75;30.58;101745.19;5135364;27;20408;-62
2022/05/04 11:13:43;;;;;;;8.32;6.43;;;;;;;23.82;30.35;101748.97;5116744;28;20504;-61
2022/05/04 11:16:10;;;;;;;11.35;6.93;;;;;;;23.94;30.57;101750.34;5098742;28;20047;-61
2022/05/04 11:18:38;;;;;;;14.30;7.72;;;;;;;24.06;30.14;101745.34;5116809;28;20044;-61
2022/05/04 11:21:13;;;;;;;10.20;6.70;;;;;;;24.00;30.09;101743.28;5112557;27;20035;-61
2022/05/04 11:23:44;;;;;;;13.82;7.13;;;;;;;24.06;29.78;101739.84;5136998;27;20035;-60
2022/05/04 11:26:38;;;;;;;11.40;7.43;;;;;;;24.11;29.49;101739.31;5136799;27;20031;-62
2022/05/04 11:29:16;;;;;;;11.27;7.05;;;;;;;24.06;29.33;101735.22;5117609;27;20039;-61
2022/05/04 11:31:54;;;;;;;11.52;7.57;;;;;;;24.09;29.40;101725.78;5137101;27;20032;-60
2022/05/04 11:34:26;;;;;;;15.35;7.28;;;;;;;24.18;29.62;101732.09;5136727;27;20043;-62
2022/05/04 11:36:56;;;;;;;11.57;7.38;;;;;;;24.23;29.78;101726.91;5118981;27;20577;-62
2022/05/04 11:39:24;;;;;;;12.75;7.25;;;;;;;24.32;29.75;101724.00;5117634;27;20043;-61
2022/05/04 11:41:53;;;;;;;12.45;7.60;;;;;;;24.37;29.17;101720.72;5136977;27;20035;-61
2022/05/04 11:44:23;;;;;;;11.90;7.63;;;;;;;24.30;29.19;101727.97;5136510;27;20393;-62
2022/05/04 11:46:51;;;;;;;13.35;7.65;;;;;;;24.33;28.88;101725.72;5136612;27;20047;-61
2022/05/04 11:49:19;;;;;;;14.60;8.68;;;;;;;24.30;28.89;101728.81;5117277;27;20512;-62
2022/05/04 11:51:46;;;;;;;13.13;7.70;;;;;;;24.17;28.52;101722.13;5118338;27;20411;-60